createdAt,value
2019-02-15T00:02:24.946Z,102586.03
2019-02-15T00:04:58.350Z,102584.19
2019-02-15T00:07:31.764Z,102583.61
2019-02-15T00:10:06.643Z,102583.89
2019-02-15T00:12:40.054Z,102586.83
2019-02-15T00:15:13.517Z,102588.09
2019-02-15T00:17:51.744Z,102577.98
2019-02-15T00:20:32.657Z,102577.04
2019-02-15T00:23:06.102Z,102580.28
2019-02-15T00:25:39.587Z,102575.18
2019-02-15T00:28:13.038Z,102579.83
2019-02-15T00:30:46.423Z,102582.77
2019-02-15T00:33:19.892Z,102580.23
2019-02-15T00:35:53.280Z,102576.94
2019-02-15T00:38:26.638Z,102572.74
2019-02-15T00:40:59.951Z,102570.22
2019-02-15T00:43:33.342Z,102575.27
2019-02-15T00:46:08.426Z,102573.15
2019-02-15T00:48:41.926Z,102573.96
2019-02-15T00:51:19.660Z,102574.28
2019-02-15T00:53:54.708Z,102574.56
2019-02-15T00:56:48.034Z,102568.16
2019-02-15T00:59:23.004Z,102569.69
2019-02-15T01:01:58.064Z,102568.34
2019-02-15T01:04:35.908Z,102568.34
2019-02-15T01:07:16.635Z,102565.37
2019-02-15T01:09:54.466Z,102563.66
2019-02-15T01:12:29.944Z,102564.79
2019-02-15T01:15:03.794Z,102566.91
2019-02-15T01:17:37.207Z,102561.27
2019-02-15T01:20:10.602Z,102561.73
2019-02-15T01:22:44.023Z,102554.96
2019-02-15T01:25:17.501Z,102557.95
2019-02-15T01:27:58.149Z,102555.17
2019-02-15T01:30:51.306Z,102552.59
2019-02-15T01:33:26.372Z,102555.17
2019-02-15T01:36:19.571Z,102550.52
2019-02-15T01:38:54.549Z,102550.92
2019-02-15T01:41:29.515Z,102552.64
2019-02-15T01:44:04.793Z,102556.84
2019-02-15T01:46:42.757Z,102551.06
2019-02-15T01:49:17.071Z,102547.59
2019-02-15T01:51:50.486Z,102545.42
2019-02-15T01:54:23.888Z,102548.22
2019-02-15T01:56:57.303Z,102538.84
2019-02-15T01:59:30.664Z,102538.39
2019-02-15T02:02:04.353Z,102537.81
2019-02-15T02:04:37.736Z,102543.36
2019-02-15T02:07:11.343Z,102539.17
2019-02-15T02:09:44.808Z,102537.12
2019-02-15T02:12:18.270Z,102534.07
2019-02-15T02:14:51.616Z,102532.76
2019-02-15T02:17:24.957Z,102534.39
2019-02-15T02:19:58.273Z,102537.41
2019-02-15T02:22:31.622Z,102532.67
2019-02-15T02:25:06.688Z,102530.10
2019-02-15T02:27:40.123Z,102533.08
2019-02-15T02:30:13.563Z,102533.89
2019-02-15T02:32:46.992Z,102539.27
2019-02-15T02:35:20.431Z,102541.06
2019-02-15T02:37:53.789Z,102539.80
2019-02-15T02:40:27.204Z,102538.89
2019-02-15T02:43:00.595Z,102542.20
2019-02-15T02:45:34.055Z,102537.95
2019-02-15T02:48:07.484Z,102544.67
2019-02-15T02:50:41.309Z,102550.26
2019-02-15T02:53:18.210Z,102546.79
2019-02-15T02:55:51.617Z,102535.78
2019-02-15T02:58:25.077Z,102537.18
2019-02-15T03:00:58.552Z,102531.27
2019-02-15T03:03:31.955Z,102539.97
2019-02-15T03:06:05.326Z,102543.48
2019-02-15T03:08:38.677Z,102545.26
2019-02-15T03:11:12.040Z,102543.73
2019-02-15T03:13:45.625Z,102547.52
2019-02-15T03:16:19.156Z,102545.34
2019-02-15T03:18:52.535Z,102542.55
2019-02-15T03:21:26.003Z,102541.69
2019-02-15T03:23:59.443Z,102542.09
2019-02-15T03:26:32.854Z,102538.30
2019-02-15T03:29:06.266Z,102540.80
2019-02-15T03:31:39.609Z,102542.07
2019-02-15T03:34:13.057Z,102541.09
2019-02-15T03:36:50.830Z,102537.44
2019-02-15T03:39:31.570Z,102537.75
2019-02-15T03:42:05.103Z,102537.62
2019-02-15T03:44:38.601Z,102529.55
2019-02-15T03:47:14.047Z,102530.45
2019-02-15T03:49:47.416Z,102533.06
2019-02-15T03:52:20.950Z,102523.38
2019-02-15T03:54:54.307Z,102529.27
2019-02-15T03:57:27.734Z,102533.03
2019-02-15T04:00:01.306Z,102530.73
2019-02-15T04:02:34.736Z,102532.91
2019-02-15T04:05:08.331Z,102529.58
2019-02-15T04:07:41.828Z,102527.14
2019-02-15T04:10:15.269Z,102527.46
2019-02-15T04:12:48.728Z,102528.53
2019-02-15T04:15:22.210Z,102524.53
2019-02-15T04:17:56.048Z,102525.08
2019-02-15T04:20:29.427Z,102522.16
2019-02-15T04:23:02.764Z,102531.06
2019-02-15T04:25:36.303Z,102528.67
2019-02-15T04:28:09.701Z,102527.85
2019-02-15T04:30:43.104Z,102521.63
2019-02-15T04:33:16.585Z,102519.51
2019-02-15T04:35:49.962Z,102516.72
2019-02-15T04:38:23.319Z,102522.61
2019-02-15T04:40:56.699Z,102517.16
2019-02-15T04:43:31.772Z,102521.55
2019-02-15T04:46:05.239Z,102515.91
2019-02-15T04:48:38.613Z,102509.20
2019-02-15T04:51:11.971Z,102511.80
2019-02-15T04:53:45.334Z,102502.64
2019-02-15T04:56:18.825Z,102513.63
2019-02-15T04:58:52.161Z,102504.53
2019-02-15T05:01:25.706Z,102502.91
2019-02-15T05:03:59.188Z,102509.52
2019-02-15T05:06:32.635Z,102506.95
2019-02-15T05:09:06.289Z,102508.41
2019-02-15T05:11:39.712Z,102505.53
2019-02-15T05:14:13.201Z,102509.31
2019-02-15T05:16:46.524Z,102503.96
2019-02-15T05:19:19.943Z,102505.27
2019-02-15T05:21:53.404Z,102508.86
2019-02-15T05:24:26.752Z,102505.53
2019-02-15T05:27:00.084Z,102504.77
2019-02-15T05:29:33.437Z,102501.03
2019-02-15T05:32:06.968Z,102498.92
2019-02-15T05:34:40.361Z,102499.44
2019-02-15T05:37:13.741Z,102501.02
2019-02-15T05:39:47.394Z,102501.91
2019-02-15T05:42:20.735Z,102498.44
2019-02-15T05:45:03.335Z,102504.72
2019-02-15T05:47:29.232Z,102498.96
2019-02-15T05:50:02.569Z,102499.50
2019-02-15T05:52:36.113Z,102493.46
2019-02-15T05:55:09.842Z,102504.72
2019-02-15T05:57:43.235Z,102494.32
2019-02-15T06:00:16.579Z,102497.84
2019-02-15T06:02:49.948Z,102503.86
2019-02-15T06:05:23.455Z,102507.87
2019-02-15T06:07:56.950Z,102502.06
2019-02-15T06:10:30.297Z,102495.50
2019-02-15T06:13:03.722Z,102504.37
2019-02-15T06:15:37.174Z,102501.14
2019-02-15T06:18:10.503Z,102506.33
2019-02-15T06:20:43.960Z,102504.98
2019-02-15T06:23:17.442Z,102505.92
2019-02-15T06:25:50.804Z,102510.11
2019-02-15T06:28:24.129Z,102508.50
2019-02-15T06:30:57.603Z,102511.52
2019-02-15T06:33:31.063Z,102512.54
2019-02-15T06:36:04.520Z,102527.28
2019-02-15T06:38:37.949Z,102520.84
2019-02-15T06:41:12.433Z,102524.11
2019-02-15T06:43:45.974Z,102519.76
2019-02-15T06:46:19.331Z,102522.08
2019-02-15T06:48:52.724Z,102530.04
2019-02-15T06:51:26.084Z,102537.75
2019-02-15T06:53:59.503Z,102534.56
2019-02-15T06:56:32.990Z,102534.11
2019-02-15T06:59:23.983Z,102541.02
2019-02-15T07:02:01.798Z,102537.78
2019-02-15T07:04:36.865Z,102535.41
2019-02-15T07:07:10.322Z,102534.14
2019-02-15T07:09:43.678Z,102529.91
2019-02-15T07:12:17.042Z,102535.41
2019-02-15T07:14:50.411Z,102542.53
2019-02-15T07:17:23.798Z,102543.53
2019-02-15T07:19:57.191Z,102536.72
2019-02-15T07:22:30.658Z,102543.45
2019-02-15T07:25:04.875Z,102538.84
2019-02-15T07:27:38.303Z,102543.88
2019-02-15T07:30:15.367Z,102548.09
2019-02-15T07:32:48.402Z,102548.69
2019-02-15T07:35:21.765Z,102549.38
2019-02-15T07:37:55.122Z,102546.88
2019-02-15T07:40:28.557Z,102547.70
2019-02-15T07:43:01.918Z,102545.45
2019-02-15T07:45:42.645Z,102541.87
2019-02-15T07:48:10.525Z,102548.20
2019-02-15T07:50:43.893Z,102547.59
2019-02-15T07:53:17.209Z,102549.45
2019-02-15T07:55:50.612Z,102549.72
2019-02-15T07:58:23.937Z,102549.72
2019-02-15T08:00:57.278Z,102551.20
2019-02-15T08:03:30.600Z,102548.14
2019-02-15T08:06:04.051Z,102541.36
2019-02-15T08:08:37.391Z,102550.81
2019-02-15T08:11:10.807Z,102538.75
2019-02-15T08:13:44.169Z,102542.02
2019-02-15T08:16:17.593Z,102541.67
2019-02-15T08:18:51.029Z,102539.44
2019-02-15T08:21:24.405Z,102529.73
2019-02-15T08:23:57.804Z,102532.84
2019-02-15T08:26:31.155Z,102528.19
2019-02-15T08:29:04.560Z,102531.08
2019-02-15T08:31:37.950Z,102534.95
2019-02-15T08:34:11.303Z,102533.57
2019-02-15T08:36:44.680Z,102529.19
2019-02-15T08:39:17.995Z,102527.31
2019-02-15T08:42:01.692Z,102534.00
2019-02-15T08:44:26.406Z,102531.24
2019-02-15T08:46:59.778Z,102524.62
2019-02-15T08:49:33.155Z,102530.93
2019-02-15T08:52:06.557Z,102518.27
2019-02-15T08:54:39.919Z,102527.28
2019-02-15T08:57:13.548Z,102523.47
2019-02-15T08:59:46.967Z,102524.34
2019-02-15T09:02:21.941Z,102520.69
2019-02-15T09:04:55.346Z,102518.94
2019-02-15T09:07:28.770Z,102519.70
2019-02-15T09:10:02.168Z,102511.56
2019-02-15T09:12:35.635Z,102523.85
2019-02-15T09:15:12.042Z,102523.05
2019-02-15T09:17:45.425Z,102518.84
2019-02-15T09:20:18.834Z,102508.05
2019-02-15T09:22:52.333Z,102519.95
2019-02-15T09:25:25.775Z,102516.51
2019-02-15T09:28:03.553Z,102513.60
2019-02-15T09:30:37.108Z,102507.52
2019-02-15T09:33:10.479Z,102508.47
2019-02-15T09:35:43.928Z,102505.55
2019-02-15T09:38:17.296Z,102506.47
2019-02-15T09:40:50.746Z,102510.59
2019-02-15T09:43:24.228Z,102513.38
2019-02-15T09:45:57.705Z,102504.92
2019-02-15T09:48:31.172Z,102498.15
2019-02-15T09:51:04.524Z,102501.66
2019-02-15T09:53:37.889Z,102496.90
2019-02-15T09:56:11.322Z,102504.00
2019-02-15T09:58:44.739Z,102501.68
2019-02-15T10:01:18.173Z,102498.44
2019-02-15T10:03:51.664Z,102507.05
2019-02-15T10:06:25.003Z,102500.23
2019-02-15T10:08:58.591Z,102499.34
2019-02-15T10:11:31.985Z,102497.20
2019-02-15T10:14:05.450Z,102496.73
2019-02-15T10:16:38.840Z,102498.84
2019-02-15T10:19:12.213Z,102499.25
2019-02-15T10:21:45.634Z,102497.55
2019-02-15T10:24:19.032Z,102506.98
2019-02-15T10:26:52.560Z,102501.85
2019-02-15T10:29:25.938Z,102501.44
2019-02-15T10:31:59.397Z,102498.44
2019-02-15T10:34:32.870Z,102500.60
2019-02-15T10:37:06.269Z,102493.78
2019-02-15T10:39:39.685Z,102486.08
2019-02-15T10:42:13.181Z,102480.55
2019-02-15T10:44:46.577Z,102481.39
2019-02-15T10:47:25.068Z,102483.12
2019-02-15T10:49:55.054Z,102478.81
2019-02-15T10:52:28.550Z,102483.50
2019-02-15T10:55:04.693Z,102473.23
2019-02-15T10:57:38.296Z,102469.33
2019-02-15T11:00:31.058Z,102467.55
2019-02-15T11:03:04.464Z,102470.48
2019-02-15T11:05:37.874Z,102467.06
2019-02-15T11:08:11.286Z,102461.05
2019-02-15T11:10:44.674Z,102457.14
2019-02-15T11:13:17.976Z,102458.41
2019-02-15T11:15:51.465Z,102455.35
2019-02-15T11:18:24.809Z,102456.88
2019-02-15T11:20:58.266Z,102455.88
2019-02-15T11:23:31.763Z,102457.56
2019-02-15T11:26:05.317Z,102449.83
2019-02-15T11:28:38.726Z,102447.75
2019-02-15T11:31:12.188Z,102452.34
2019-02-15T11:33:45.558Z,102442.41
2019-02-15T11:36:18.989Z,102437.22
2019-02-15T11:38:52.458Z,102431.66
2019-02-15T11:41:25.948Z,102435.36
2019-02-15T11:43:59.306Z,102427.49
2019-02-15T11:46:33.406Z,102420.08
2019-02-15T11:49:06.804Z,102417.31
2019-02-15T11:51:40.202Z,102408.91
2019-02-15T11:54:23.056Z,102404.05
2019-02-15T11:56:48.733Z,102402.27
2019-02-15T11:59:22.137Z,102401.38
2019-02-15T12:01:55.499Z,102401.78
2019-02-15T12:04:28.876Z,102396.22
2019-02-15T12:07:02.275Z,102396.88
2019-02-15T12:09:35.663Z,102383.27
2019-02-15T12:12:10.953Z,102385.66
2019-02-15T12:14:44.170Z,102379.70
2019-02-15T12:17:17.653Z,102379.54
2019-02-15T12:19:51.047Z,102377.97
2019-02-15T12:22:24.501Z,102370.47
2019-02-15T12:24:57.901Z,102370.64
2019-02-15T12:27:31.342Z,102366.34
2019-02-15T12:30:09.948Z,102371.83
2019-02-15T12:32:43.421Z,102364.20
2019-02-15T12:35:16.774Z,102362.28
2019-02-15T12:37:50.202Z,102355.94
2019-02-15T12:40:23.602Z,102354.52
2019-02-15T12:42:57.040Z,102354.56
2019-02-15T12:45:30.602Z,102348.17
2019-02-15T12:48:04.120Z,102341.98
2019-02-15T12:50:37.454Z,102337.66
2019-02-15T12:53:10.972Z,102337.14
2019-02-15T12:55:44.295Z,102331.33
2019-02-15T12:58:17.757Z,102331.04
2019-02-15T13:00:51.185Z,102326.31
2019-02-15T13:03:24.608Z,102324.16
2019-02-15T13:05:58.103Z,102321.89
2019-02-15T13:08:31.474Z,102318.71
2019-02-15T13:11:04.866Z,102314.98
2019-02-15T13:13:38.316Z,102313.94
2019-02-15T13:16:11.715Z,102311.16
2019-02-15T13:18:45.103Z,102306.46
2019-02-15T13:21:18.583Z,102301.64
2019-02-15T13:23:52.000Z,102299.44
2019-02-15T13:26:25.504Z,102298.16
2019-02-15T13:28:58.976Z,102294.00
2019-02-15T13:31:32.343Z,102291.88
2019-02-15T13:34:05.692Z,102289.36
2019-02-15T13:36:39.081Z,102284.76
2019-02-15T13:39:12.502Z,102280.06
2019-02-15T13:41:45.931Z,102278.91
2019-02-15T13:44:19.354Z,102277.56
2019-02-15T13:46:53.203Z,102278.01
2019-02-15T13:49:26.638Z,102268.25
2019-02-15T13:52:00.047Z,102266.17
2019-02-15T13:54:33.550Z,102258.13
2019-02-15T13:57:06.961Z,102254.15
2019-02-15T13:59:40.435Z,102249.32
2019-02-15T14:02:13.784Z,102246.84
2019-02-15T14:04:47.266Z,102244.84
2019-02-15T14:07:20.996Z,102240.63
2019-02-15T14:09:54.408Z,102237.44
2019-02-15T14:12:27.762Z,102237.88
2019-02-15T14:15:01.196Z,102228.90
2019-02-15T14:17:43.863Z,102226.78
2019-02-15T14:20:12.882Z,102226.77
2019-02-15T14:22:46.324Z,102231.55
2019-02-15T14:25:19.928Z,102229.41
2019-02-15T14:27:53.282Z,102229.42
2019-02-15T14:30:26.820Z,102226.55
2019-02-15T14:33:00.177Z,102222.67
2019-02-15T14:35:33.576Z,102226.03
2019-02-15T14:38:06.909Z,102225.25
2019-02-15T14:40:40.285Z,102218.86
2019-02-15T14:43:13.704Z,102215.55
2019-02-15T14:45:47.098Z,102216.77
2019-02-15T14:48:20.479Z,102218.14
2019-02-15T14:50:53.872Z,102216.84
2019-02-15T14:53:27.338Z,102216.45
2019-02-15T14:56:00.731Z,102213.88
2019-02-15T14:58:34.188Z,102215.27
2019-02-15T15:01:07.581Z,102216.23
2019-02-15T15:03:40.952Z,102214.64
2019-02-15T15:06:14.370Z,102213.39
2019-02-15T15:08:47.731Z,102216.67
2019-02-15T15:11:21.157Z,102213.38
2019-02-15T15:13:54.580Z,102217.70
2019-02-15T15:16:27.904Z,102212.05
2019-02-15T15:19:01.403Z,102207.00
2019-02-15T15:21:35.068Z,102204.59
2019-02-15T15:24:08.574Z,102200.34
2019-02-15T15:26:41.954Z,102195.77
2019-02-15T15:29:15.452Z,102197.99
2019-02-15T15:31:48.788Z,102194.17
2019-02-15T15:34:22.287Z,102184.71
2019-02-15T15:36:55.607Z,102187.99
2019-02-15T15:39:29.117Z,102184.62
2019-02-15T15:42:02.513Z,102178.32
2019-02-15T15:44:35.970Z,102175.30
2019-02-15T15:47:09.571Z,102173.17
2019-02-15T15:49:43.034Z,102162.14
2019-02-15T15:52:16.377Z,102160.94
2019-02-15T15:54:49.741Z,102161.87
2019-02-15T15:57:23.159Z,102161.95
2019-02-15T15:59:56.604Z,102160.82
2019-02-15T16:02:29.949Z,102156.30
2019-02-15T16:05:07.319Z,102156.45
2019-02-15T16:07:40.734Z,102155.27
2019-02-15T16:10:15.077Z,102152.41
2019-02-15T16:12:48.526Z,102154.23
2019-02-15T16:15:22.025Z,102150.06
2019-02-15T16:17:55.418Z,102150.62
2019-02-15T16:20:28.892Z,102142.59
2019-02-15T16:23:02.295Z,102141.89
2019-02-15T16:25:35.761Z,102143.75
2019-02-15T16:28:09.221Z,102142.17
2019-02-15T16:30:42.582Z,102139.34
2019-02-15T16:33:15.942Z,102143.75
2019-02-15T16:35:49.371Z,102135.34
2019-02-15T16:38:22.765Z,102138.02
2019-02-15T16:40:56.158Z,102131.21
2019-02-15T16:43:29.491Z,102136.38
2019-02-15T16:46:02.871Z,102134.31
2019-02-15T16:48:42.074Z,102134.78
2019-02-15T16:51:11.396Z,102130.14
2019-02-15T16:53:44.716Z,102134.05
2019-02-15T16:56:18.245Z,102130.23
2019-02-15T16:58:51.669Z,102128.56
2019-02-15T17:01:25.121Z,102123.47
2019-02-15T17:03:58.565Z,102130.73
2019-02-15T17:06:32.062Z,102129.91
2019-02-15T17:09:07.221Z,102127.36
2019-02-15T17:11:40.596Z,102130.31
2019-02-15T17:14:14.116Z,102134.13
2019-02-15T17:16:47.496Z,102135.83
2019-02-15T17:19:20.904Z,102132.41
2019-02-15T17:21:54.291Z,102128.97
2019-02-15T17:24:27.637Z,102135.32
2019-02-15T17:27:01.055Z,102124.16
2019-02-15T17:29:34.470Z,102128.34
2019-02-15T17:32:07.838Z,102133.44
2019-02-15T17:34:41.302Z,102129.59
2019-02-15T17:37:14.803Z,102135.09
2019-02-15T17:39:48.246Z,102126.97
2019-02-15T17:42:21.666Z,102120.95
2019-02-15T17:44:55.000Z,102125.08
2019-02-15T17:47:28.466Z,102125.41
2019-02-15T17:50:01.821Z,102115.58
2019-02-15T17:52:35.209Z,102117.66
2019-02-15T17:55:09.972Z,102119.31
2019-02-15T17:57:43.449Z,102117.55
2019-02-15T18:00:18.571Z,102117.46
2019-02-15T18:02:51.916Z,102119.10
2019-02-15T18:05:25.320Z,102116.84
2019-02-15T18:07:58.656Z,102112.89
2019-02-15T18:10:32.102Z,102114.55
2019-02-15T18:13:05.583Z,102112.36
2019-02-15T18:15:39.034Z,102112.75
2019-02-15T18:18:12.449Z,102113.56
2019-02-15T18:20:45.901Z,102116.03
2019-02-15T18:23:19.404Z,102115.11
2019-02-15T18:25:52.898Z,102112.86
2019-02-15T18:28:26.316Z,102109.80
2019-02-15T18:30:59.669Z,102102.92
2019-02-15T18:33:33.059Z,102101.14
2019-02-15T18:36:06.485Z,102101.91
2019-02-15T18:38:40.723Z,102103.95
2019-02-15T18:41:14.279Z,102102.16
2019-02-15T18:43:47.716Z,102104.18
2019-02-15T18:46:21.062Z,102101.13
2019-02-15T18:48:54.507Z,102090.86
2019-02-15T18:51:27.996Z,102089.11
2019-02-15T18:54:01.393Z,102080.91
2019-02-15T18:56:34.754Z,102075.77
2019-02-15T18:59:08.230Z,102074.45
2019-02-15T19:01:41.588Z,102076.13
2019-02-15T19:04:14.916Z,102072.02
2019-02-15T19:06:48.317Z,102075.23
2019-02-15T19:09:21.634Z,102072.48
2019-02-15T19:11:55.069Z,102069.50
2019-02-15T19:14:28.415Z,102066.12
2019-02-15T19:17:01.779Z,102067.02
2019-02-15T19:19:35.156Z,102068.28
2019-02-15T19:22:08.657Z,102064.85
2019-02-15T19:24:41.984Z,102057.16
2019-02-15T19:27:15.368Z,102059.22
2019-02-15T19:29:48.741Z,102056.94
2019-02-15T19:32:22.107Z,102053.84
2019-02-15T19:34:55.431Z,102061.36
2019-02-15T19:37:28.850Z,102056.22
2019-02-15T19:40:02.174Z,102060.37
2019-02-15T19:42:35.574Z,102048.03
2019-02-15T19:45:11.130Z,102045.50
2019-02-15T19:47:44.508Z,102043.82
2019-02-15T19:50:18.499Z,102030.20
2019-02-15T19:52:51.965Z,102035.45
2019-02-15T19:55:25.303Z,102049.42
2019-02-15T19:57:58.729Z,102016.02
2019-02-15T20:00:32.077Z,102029.08
2019-02-15T20:03:05.841Z,102025.28
2019-02-15T20:05:39.348Z,102032.59
2019-02-15T20:08:13.252Z,102029.65
2019-02-15T20:10:47.130Z,102023.77
2019-02-15T20:13:20.675Z,102021.70
2019-02-15T20:15:54.052Z,102019.10
2019-02-15T20:18:27.481Z,102018.92
2019-02-15T20:21:00.859Z,102018.92
2019-02-15T20:23:34.206Z,102013.72
2019-02-15T20:26:07.571Z,102011.04
2019-02-15T20:28:41.002Z,102011.04
2019-02-15T20:31:14.322Z,102009.64
2019-02-15T20:33:47.683Z,102007.75
2019-02-15T20:36:21.205Z,102008.00
2019-02-15T20:38:54.627Z,101996.76
2019-02-15T20:41:27.971Z,101994.48
2019-02-15T20:44:01.515Z,102003.28
2019-02-15T20:46:34.955Z,101988.49
2019-02-15T20:49:08.302Z,101997.77
2019-02-15T20:51:41.670Z,102000.76
2019-02-15T20:54:15.113Z,101993.13
2019-02-15T20:56:48.467Z,101990.09
2019-02-15T20:59:21.815Z,101991.66
2019-02-15T21:01:55.228Z,101991.80
2019-02-15T21:04:28.550Z,101993.13
2019-02-15T21:07:01.929Z,101991.38
2019-02-15T21:09:35.360Z,101987.50
2019-02-15T21:12:09.001Z,101983.20
2019-02-15T21:14:42.483Z,101982.71
2019-02-15T21:17:16.013Z,101980.11
2019-02-15T21:19:49.630Z,101977.05
2019-02-15T21:22:22.993Z,101979.41
2019-02-15T21:24:56.332Z,101978.88
2019-02-15T21:27:30.063Z,101974.11
2019-02-15T21:30:12.839Z,101974.47
2019-02-15T21:32:46.421Z,101969.81
2019-02-15T21:35:19.877Z,101972.40
2019-02-15T21:37:53.507Z,101962.55
2019-02-15T21:40:26.971Z,101967.17
2019-02-15T21:43:00.540Z,101958.92
2019-02-15T21:45:33.948Z,101957.59
2019-02-15T21:48:07.303Z,101958.86
2019-02-15T21:50:40.636Z,101948.19
2019-02-15T21:53:13.985Z,101942.97
2019-02-15T21:55:47.464Z,101938.92
2019-02-15T21:58:20.889Z,101942.31
2019-02-15T22:00:54.210Z,101939.44
2019-02-15T22:03:27.567Z,101936.98
2019-02-15T22:06:00.895Z,101934.38
2019-02-15T22:08:34.304Z,101924.58
2019-02-15T22:11:07.617Z,101931.27
2019-02-15T22:13:40.984Z,101934.27
2019-02-15T22:16:14.322Z,101931.73
2019-02-15T22:18:47.674Z,101930.42
2019-02-15T22:21:21.048Z,101925.94
2019-02-15T22:23:54.463Z,101928.41
2019-02-15T22:26:27.928Z,101928.65
2019-02-15T22:29:01.284Z,101926.97
2019-02-15T22:31:34.705Z,101929.48
2019-02-15T22:34:08.298Z,101930.33
2019-02-15T22:36:41.733Z,101925.24
2019-02-15T22:39:15.092Z,101927.78
2019-02-15T22:41:48.443Z,101918.86
2019-02-15T22:44:21.835Z,101921.37
2019-02-15T22:46:55.160Z,101928.05
2019-02-15T22:49:28.595Z,101931.82
2019-02-15T22:52:02.023Z,101927.55
2019-02-15T22:54:35.455Z,101928.37
2019-02-15T22:57:08.886Z,101929.15
2019-02-15T22:59:42.279Z,101925.35
2019-02-15T23:02:15.837Z,101925.35
2019-02-15T23:04:49.277Z,101923.70
2019-02-15T23:07:22.621Z,101913.52
2019-02-15T23:09:56.017Z,101909.98
2019-02-15T23:12:29.349Z,101915.76
2019-02-15T23:15:02.716Z,101909.27
2019-02-15T23:17:36.157Z,101910.36
2019-02-15T23:20:09.682Z,101905.69
2019-02-15T23:22:43.028Z,101904.42
2019-02-15T23:25:16.484Z,101907.31
2019-02-15T23:27:49.840Z,101907.47
2019-02-15T23:30:23.178Z,101904.53
2019-02-15T23:32:56.531Z,101894.83
2019-02-15T23:35:29.926Z,101892.45
2019-02-15T23:38:03.309Z,101889.48
2019-02-15T23:40:36.703Z,101889.72
2019-02-15T23:43:10.117Z,101883.78
2019-02-15T23:45:45.083Z,101884.64
2019-02-15T23:48:18.561Z,101878.92
2019-02-15T23:50:54.949Z,101873.43
2019-02-15T23:53:27.247Z,101871.55
2019-02-15T23:56:00.586Z,101874.76
2019-02-15T23:58:34.024Z,101871.20
